Time;durP1;ratioP1;P1;durP2;ratioP2;P2;SDS_P1;SDS_P2;PMS_P1;PMS_P2;Temp;Humidity;BMP_temperature;BMP_pressure;BME280_temperature;BME280_humidity;BME280_pressure;Samples;Min_cycle;Max_cycle;Signal;HPM_P1;HPM_P2
2022/04/04 00:00:00;;;;;;;2.05;1.05;;;;;;;;;;5073735;28;20424;-64
2022/04/04 00:02:26;;;;;;;2.30;1.05;;;;;;;;;;5073781;28;20104;-62
2022/04/04 00:04:52;;;;;;;6.68;1.05;;;;;;;;;;5073670;28;20072;-60
2022/04/04 00:07:18;;;;;;;4.90;1.30;;;;;;;;;;5074037;28;20020;-62
2022/04/04 00:09:46;;;;;;;2.58;1.45;;;;;;;;;;5073890;28;20056;-61
2022/04/04 00:12:12;;;;;;;9.10;1.50;;;;;;;;;;5073185;28;20103;-60
2022/04/04 00:14:38;;;;;;;6.30;1.52;;;;;;;;;;5055782;28;20686;-65
2022/04/04 00:17:05;;;;;;;4.63;1.35;;;;;;;;;;5073558;28;20025;-60
2022/04/04 00:19:31;;;;;;;5.22;1.70;;;;;;;;;;5072485;28;20060;-61
2022/04/04 00:21:57;;;;;;;3.30;1.42;;;;;;;;;;5072946;28;20111;-65
2022/04/04 00:24:24;;;;;;;3.88;1.67;;;;;;;;;;5073346;28;20396;-59
2022/04/04 00:26:50;;;;;;;3.13;1.50;;;;;;;;;;5073538;28;20102;-62
2022/04/04 00:29:16;;;;;;;5.78;1.35;;;;;;;;;;5090287;28;20030;-63
2022/04/04 00:31:42;;;;;;;2.20;1.30;;;;;;;;;;5073165;28;20020;-61
2022/04/04 00:34:08;;;;;;;5.47;1.77;;;;;;;;;;5073827;28;20077;-60
2022/04/04 00:36:34;;;;;;;3.70;1.40;;;;;;;;;;5073550;28;20107;-66
2022/04/04 00:39:00;;;;;;;2.15;1.40;;;;;;;;;;5073418;28;20487;-62
2022/04/04 00:41:26;;;;;;;7.80;1.73;;;;;;;;;;5073219;28;20036;-60
2022/04/04 00:43:53;;;;;;;6.95;1.70;;;;;;;;;;5055220;28;20040;-60
2022/04/04 00:46:19;;;;;;;8.02;1.60;;;;;;;;;;5073061;28;20035;-60
2022/04/04 00:48:45;;;;;;;4.65;1.83;;;;;;;;;;5071628;28;20037;-65
2022/04/04 00:51:11;;;;;;;5.82;1.65;;;;;;;;;;5072830;28;20020;-61
2022/04/04 00:53:37;;;;;;;5.05;1.70;;;;;;;;;;5073372;28;20474;-62
2022/04/04 00:56:03;;;;;;;1.65;1.55;;;;;;;;;;5073100;28;20016;-62
2022/04/04 00:58:30;;;;;;;3.40;2.00;;;;;;;;;;5072871;28;20115;-64
2022/04/04 01:00:57;;;;;;;2.35;1.50;;;;;;;;;;5072079;28;20021;-65
2022/04/04 01:03:23;;;;;;;4.35;1.60;;;;;;;;;;5054765;28;20035;-62
2022/04/04 01:05:49;;;;;;;6.80;1.85;;;;;;;;;;5072375;28;20029;-64
2022/04/04 01:08:16;;;;;;;4.18;1.63;;;;;;;;;;5073001;28;20066;-65
2022/04/04 01:10:42;;;;;;;7.63;1.83;;;;;;;;;;5072690;28;20369;-60
2022/04/04 01:13:09;;;;;;;5.03;1.45;;;;;;;;;;5072513;28;20020;-62
2022/04/04 01:15:35;;;;;;;3.95;1.85;;;;;;;;;;5072703;28;20020;-63
2022/04/04 01:18:02;;;;;;;6.90;2.08;;;;;;;;;;5072403;28;20036;-65
2022/04/04 01:20:28;;;;;;;2.28;1.60;;;;;;;;;;5054680;28;20444;-63
2022/04/04 01:22:54;;;;;;;4.22;1.80;;;;;;;;;;5070164;28;20688;-62
2022/04/04 01:25:24;;;;;;;4.60;1.90;;;;;;;;;;5071888;28;20074;-60
2022/04/04 01:27:50;;;;;;;4.75;1.88;;;;;;;;;;5078812;28;20111;-62
2022/04/04 01:30:16;;;;;;;3.35;2.10;;;;;;;;;;5082475;28;20099;-60
2022/04/04 01:32:42;;;;;;;3.03;1.88;;;;;;;;;;5072273;28;20387;-59
2022/04/04 01:35:09;;;;;;;2.05;1.63;;;;;;;;;;5072236;28;20503;-61
2022/04/04 01:37:35;;;;;;;6.07;1.67;;;;;;;;;;5072350;28;20027;-63
2022/04/04 01:40:01;;;;;;;8.70;1.75;;;;;;;;;;5072077;28;20066;-59
2022/04/04 01:42:27;;;;;;;4.95;1.77;;;;;;;;;;5071818;28;20024;-60
2022/04/04 01:44:59;;;;;;;9.43;1.73;;;;;;;;;;5072094;28;20047;-59
2022/04/04 01:47:25;;;;;;;3.15;1.40;;;;;;;;;;5072225;28;20043;-60
2022/04/04 01:49:51;;;;;;;3.92;1.52;;;;;;;;;;5072162;28;20468;-60
2022/04/04 01:52:18;;;;;;;1.48;1.30;;;;;;;;;;5070821;28;20036;-59
2022/04/04 01:54:44;;;;;;;3.58;1.52;;;;;;;;;;5071825;28;20021;-60
2022/04/04 01:57:10;;;;;;;4.50;1.42;;;;;;;;;;5072030;28;20333;-62
2022/04/04 01:59:36;;;;;;;3.20;1.50;;;;;;;;;;5071441;28;20082;-61
2022/04/04 02:02:02;;;;;;;3.30;1.45;;;;;;;;;;5071809;28;20479;-64
2022/04/04 02:04:28;;;;;;;4.05;1.30;;;;;;;;;;5071795;28;20090;-62
2022/04/04 02:06:54;;;;;;;7.80;1.40;;;;;;;;;;5071506;28;20020;-60
2022/04/04 02:09:20;;;;;;;4.10;1.52;;;;;;;;;;5072147;28;20078;-59
2022/04/04 02:11:47;;;;;;;5.85;1.98;;;;;;;;;;5071478;28;20028;-63
2022/04/04 02:14:13;;;;;;;5.03;1.35;;;;;;;;;;5071749;28;20135;-63
2022/04/04 02:16:39;;;;;;;4.68;1.40;;;;;;;;;;5071843;28;20107;-62
2022/04/04 02:19:05;;;;;;;3.20;1.50;;;;;;;;;;5071717;28;20464;-60
2022/04/04 02:21:31;;;;;;;3.28;1.42;;;;;;;;;;5071367;28;20514;-64
2022/04/04 02:23:57;;;;;;;3.90;1.70;;;;;;;;;;5070204;28;20083;-60
2022/04/04 02:26:23;;;;;;;4.32;1.60;;;;;;;;;;5071356;28;20404;-65
2022/04/04 02:28:49;;;;;;;4.03;1.60;;;;;;;;;;5071590;28;20071;-60
2022/04/04 02:31:15;;;;;;;3.67;1.55;;;;;;;;;;5089576;28;20751;-61
2022/04/04 02:33:42;;;;;;;4.72;1.60;;;;;;;;;;5092090;28;20031;-59
2022/04/04 02:36:08;;;;;;;5.50;1.60;;;;;;;;;;5091435;28;20733;-59
2022/04/04 02:38:34;;;;;;;4.50;1.48;;;;;;;;;;5073892;28;20024;-60
2022/04/04 02:41:00;;;;;;;5.55;1.65;;;;;;;;;;5091209;28;20028;-61
2022/04/04 02:43:27;;;;;;;4.43;1.90;;;;;;;;;;5091679;28;20472;-60
2022/04/04 02:45:53;;;;;;;5.07;1.90;;;;;;;;;;5082811;28;20026;-59
2022/04/04 02:48:19;;;;;;;3.25;1.83;;;;;;;;;;5071150;28;20078;-60
2022/04/04 02:50:46;;;;;;;9.80;1.80;;;;;;;;;;5053234;28;20029;-60
2022/04/04 02:53:12;;;;;;;3.65;1.83;;;;;;;;;;5071292;28;20610;-62
2022/04/04 02:58:23;;;;;;;4.63;2.00;;;;;;;;;;5071497;28;20075;-60
2022/04/04 03:00:49;;;;;;;4.93;2.30;;;;;;;;;;5069789;28;20064;-61
2022/04/04 03:03:15;;;;;;;5.85;1.92;;;;;;;;;;5070844;28;20036;-63
2022/04/04 03:05:41;;;;;;;5.88;1.92;;;;;;;;;;5070746;28;20448;-64
2022/04/04 03:08:08;;;;;;;4.53;1.70;;;;;;;;;;5071362;28;20029;-60
2022/04/04 03:10:34;;;;;;;6.75;1.85;;;;;;;;;;5070937;28;20107;-59
2022/04/04 03:13:02;;;;;;;2.47;1.88;;;;;;;;;;5071098;28;20023;-60
2022/04/04 03:15:28;;;;;;;4.22;1.88;;;;;;;;;;5071436;28;20032;-61
2022/04/04 03:17:55;;;;;;;4.30;1.60;;;;;;;;;;5069768;28;20036;-60
2022/04/04 03:20:21;;;;;;;7.35;2.13;;;;;;;;;;5049760;28;20377;-60
2022/04/04 03:22:52;;;;;;;3.17;1.88;;;;;;;;;;5059347;28;20094;-62
2022/04/04 03:25:18;;;;;;;3.67;2.15;;;;;;;;;;5058762;28;20115;-60
2022/04/04 03:27:45;;;;;;;3.78;1.80;;;;;;;;;;5062191;28;20139;-64
2022/04/04 03:30:15;;;;;;;4.32;1.80;;;;;;;;;;5091027;28;20032;-60
2022/04/04 03:32:41;;;;;;;3.60;1.92;;;;;;;;;;5091094;28;20103;-61
2022/04/04 03:35:07;;;;;;;4.18;2.20;;;;;;;;;;5091003;28;20043;-60
2022/04/04 03:37:34;;;;;;;5.45;2.00;;;;;;;;;;5072891;28;20032;-60
2022/04/04 03:40:01;;;;;;;7.32;2.08;;;;;;;;;;5091244;28;20054;-61
2022/04/04 03:42:27;;;;;;;5.50;1.70;;;;;;;;;;5090862;28;20031;-64
2022/04/04 03:44:53;;;;;;;5.20;1.58;;;;;;;;;;5090951;28;20040;-60
2022/04/04 03:47:19;;;;;;;4.05;2.17;;;;;;;;;;5092326;28;20028;-66
2022/04/04 03:49:46;;;;;;;4.05;1.67;;;;;;;;;;5090819;28;20025;-60
2022/04/04 03:52:12;;;;;;;5.70;1.88;;;;;;;;;;5074217;28;20090;-64
2022/04/04 03:54:38;;;;;;;5.18;1.98;;;;;;;;;;5074198;28;20021;-59
2022/04/04 03:57:04;;;;;;;3.78;1.90;;;;;;;;;;5074211;28;20082;-60
2022/04/04 03:59:30;;;;;;;6.18;1.98;;;;;;;;;;5073978;28;20024;-61
2022/04/04 04:01:56;;;;;;;8.00;2.00;;;;;;;;;;5073491;28;20028;-64
2022/04/04 04:04:22;;;;;;;5.85;2.10;;;;;;;;;;5073822;28;20036;-62
2022/04/04 04:06:49;;;;;;;6.85;1.80;;;;;;;;;;5072242;28;20036;-62
2022/04/04 04:09:15;;;;;;;4.90;1.73;;;;;;;;;;5071551;28;20036;-61
2022/04/04 04:11:41;;;;;;;10.98;2.05;;;;;;;;;;5073459;28;20446;-67
2022/04/04 04:14:07;;;;;;;13.65;1.88;;;;;;;;;;5074265;28;20064;-63
2022/04/04 04:16:33;;;;;;;4.35;1.70;;;;;;;;;;5074006;28;20067;-62
2022/04/04 04:18:59;;;;;;;6.55;1.92;;;;;;;;;;5073769;28;20060;-62
2022/04/04 04:21:25;;;;;;;4.22;2.10;;;;;;;;;;5073582;28;20099;-64
2022/04/04 04:23:51;;;;;;;5.10;2.17;;;;;;;;;;5091274;28;20044;-65
2022/04/04 04:26:17;;;;;;;4.38;1.98;;;;;;;;;;5073810;28;20090;-63
2022/04/04 04:28:45;;;;;;;2.80;1.50;;;;;;;;;;5059536;28;20448;-65
2022/04/04 04:31:11;;;;;;;5.38;1.85;;;;;;;;;;5069758;28;20025;-62
2022/04/04 04:33:37;;;;;;;4.07;1.90;;;;;;;;;;5063977;28;20083;-63
2022/04/04 04:36:03;;;;;;;4.47;1.65;;;;;;;;;;5053345;28;20021;-66
2022/04/04 04:38:30;;;;;;;4.93;1.80;;;;;;;;;;5053481;28;20021;-61
2022/04/04 04:40:56;;;;;;;3.38;1.50;;;;;;;;;;5053558;28;20028;-66
2022/04/04 04:43:22;;;;;;;6.80;1.73;;;;;;;;;;5035346;28;20043;-64
2022/04/04 04:45:48;;;;;;;8.40;1.40;;;;;;;;;;5053308;28;20104;-63
2022/04/04 04:48:14;;;;;;;5.47;1.65;;;;;;;;;;5053371;28;20109;-63
2022/04/04 04:50:40;;;;;;;10.30;2.10;;;;;;;;;;5053286;28;20028;-64
2022/04/04 04:53:06;;;;;;;14.85;1.38;;;;;;;;;;5052953;28;20446;-63
2022/04/04 04:55:32;;;;;;;9.90;1.70;;;;;;;;;;5053438;28;20025;-65
2022/04/04 04:57:59;;;;;;;18.13;2.15;;;;;;;;;;5052879;28;20461;-61
2022/04/04 05:00:26;;;;;;;35.90;2.70;;;;;;;;;;5052847;28;20029;-60
2022/04/04 05:05:38;;;;;;;49.47;3.10;;;;;;;;;;5059500;28;20106;-61
2022/04/04 05:08:05;;;;;;;25.70;2.85;;;;;;;;;;5089063;28;20483;-61
2022/04/04 05:10:31;;;;;;;38.03;4.18;;;;;;;;;;5084284;28;20451;-63
2022/04/04 05:12:56;;;;;;;19.52;2.67;;;;;;;;;;5092389;28;20032;-62
2022/04/04 05:15:23;;;;;;;26.15;2.88;;;;;;;;;;5074479;28;20450;-62
2022/04/04 05:17:49;;;;;;;19.83;2.30;;;;;;;;;;5092711;28;20024;-62
2022/04/04 05:20:15;;;;;;;22.38;3.10;;;;;;;;;;5064374;28;20478;-60
2022/04/04 05:22:41;;;;;;;24.88;2.72;;;;;;;;;;5069735;28;20056;-63
2022/04/04 05:25:08;;;;;;;29.98;2.95;;;;;;;;;;5061100;28;20052;-61
2022/04/04 05:27:36;;;;;;;43.55;3.13;;;;;;;;;;5053470;28;20040;-61
2022/04/04 05:30:02;;;;;;;23.55;2.72;;;;;;;;;;5072008;28;20579;-62
2022/04/04 05:32:29;;;;;;;24.45;2.58;;;;;;;;;;5092666;28;20032;-59
2022/04/04 05:34:55;;;;;;;14.48;2.58;;;;;;;;;;5093118;28;20035;-61
2022/04/04 05:37:21;;;;;;;47.33;2.97;;;;;;;;;;5087949;28;20111;-64
2022/04/04 05:39:47;;;;;;;33.90;3.08;;;;;;;;;;5069009;28;20116;-60
2022/04/04 05:42:13;;;;;;;26.77;4.05;;;;;;;;;;5065714;28;20471;-66
2022/04/04 05:44:39;;;;;;;14.85;3.30;;;;;;;;;;5070180;28;20067;-65
2022/04/04 05:47:05;;;;;;;33.40;3.83;;;;;;;;;;5082172;28;20028;-64
2022/04/04 05:49:31;;;;;;;30.25;3.63;;;;;;;;;;5067143;28;20020;-65
2022/04/04 05:51:57;;;;;;;24.80;3.20;;;;;;;;;;5061361;28;20038;-66
2022/04/04 05:54:23;;;;;;;36.60;3.38;;;;;;;;;;5072247;28;20032;-64
2022/04/04 05:56:49;;;;;;;12.55;2.92;;;;;;;;;;5067403;28;20514;-65
2022/04/04 05:59:15;;;;;;;18.35;3.58;;;;;;;;;;5076013;28;20038;-65
2022/04/04 06:01:41;;;;;;;24.80;3.35;;;;;;;;;;5071352;28;20020;-67
2022/04/04 06:04:07;;;;;;;12.23;2.60;;;;;;;;;;5073922;28;20036;-64
2022/04/04 06:06:34;;;;;;;18.33;3.63;;;;;;;;;;5066823;28;20056;-64
2022/04/04 06:09:00;;;;;;;9.40;2.75;;;;;;;;;;5069778;28;20047;-69
2022/04/04 06:11:26;;;;;;;14.63;2.97;;;;;;;;;;5076285;28;20830;-69
2022/04/04 06:13:52;;;;;;;9.98;2.58;;;;;;;;;;5079664;28;20028;-68
2022/04/04 06:16:18;;;;;;;8.27;2.47;;;;;;;;;;5063890;28;20028;-69
2022/04/04 06:18:44;;;;;;;11.85;2.63;;;;;;;;;;5070325;28;20070;-67
2022/04/04 06:21:10;;;;;;;10.32;2.53;;;;;;;;;;5071396;28;20459;-69
2022/04/04 06:23:37;;;;;;;11.82;2.30;;;;;;;;;;5053373;28;20051;-69
2022/04/04 06:26:06;;;;;;;15.82;2.50;;;;;;;;;;5053099;28;20040;-65
2022/04/04 06:28:34;;;;;;;9.75;2.00;;;;;;;;;;5051397;28;20028;-67
2022/04/04 06:31:01;;;;;;;10.15;2.05;;;;;;;;;;5078600;28;20032;-65
2022/04/04 06:33:27;;;;;;;9.77;2.08;;;;;;;;;;5071192;28;20028;-68
2022/04/04 06:35:54;;;;;;;10.40;1.92;;;;;;;;;;5071126;28;20031;-66
2022/04/04 06:38:20;;;;;;;17.00;1.85;;;;;;;;;;5071010;28;20078;-67
2022/04/04 06:40:48;;;;;;;8.75;1.58;;;;;;;;;;5070625;28;20025;-69
2022/04/04 06:43:14;;;;;;;9.50;1.70;;;;;;;;;;5052608;28;20028;-68
2022/04/04 06:45:41;;;;;;;5.70;1.67;;;;;;;;;;5070923;28;20024;-65
2022/04/04 06:48:07;;;;;;;5.65;1.50;;;;;;;;;;5070639;28;20105;-70
2022/04/04 06:50:33;;;;;;;2.78;1.13;;;;;;;;;;5052878;28;20052;-67
2022/04/04 06:52:59;;;;;;;4.72;1.42;;;;;;;;;;5070657;28;20114;-66
2022/04/04 06:55:25;;;;;;;2.13;1.20;;;;;;;;;;5070508;28;20099;-67
2022/04/04 06:57:51;;;;;;;4.32;1.17;;;;;;;;;;5071082;28;20048;-67
2022/04/04 07:00:17;;;;;;;5.57;1.30;;;;;;;;;;5070436;28;20101;-67
2022/04/04 07:02:44;;;;;;;4.00;1.13;;;;;;;;;;5070002;28;20020;-68
2022/04/04 07:05:10;;;;;;;4.72;1.40;;;;;;;;;;5064615;28;20037;-65
2022/04/04 07:07:36;;;;;;;3.92;1.17;;;;;;;;;;5078541;28;20092;-68
2022/04/04 07:10:05;;;;;;;2.85;1.02;;;;;;;;;;5062182;28;20154;-66
2022/04/04 07:12:32;;;;;;;5.45;1.17;;;;;;;;;;5070588;28;20032;-68
2022/04/04 07:14:58;;;;;;;4.97;1.60;;;;;;;;;;5079951;28;20102;-64
2022/04/04 07:17:24;;;;;;;3.80;1.42;;;;;;;;;;5052747;28;20036;-67
2022/04/04 07:19:52;;;;;;;5.40;1.48;;;;;;;;;;5036132;28;20024;-65
2022/04/04 07:22:18;;;;;;;7.50;1.38;;;;;;;;;;5062057;28;20464;-67
2022/04/04 07:24:44;;;;;;;5.63;1.60;;;;;;;;;;5063611;28;20471;-64
2022/04/04 07:27:10;;;;;;;9.82;1.60;;;;;;;;;;5067073;28;20035;-68
2022/04/04 07:29:37;;;;;;;4.50;1.42;;;;;;;;;;5070631;28;20025;-64
2022/04/04 07:32:04;;;;;;;3.85;1.52;;;;;;;;;;5068268;28;20056;-67
2022/04/04 07:34:30;;;;;;;3.53;1.40;;;;;;;;;;5070467;28;20032;-69
2022/04/04 07:36:56;;;;;;;4.53;1.40;;;;;;;;;;5064524;28;20021;-66
2022/04/04 07:39:22;;;;;;;4.45;1.60;;;;;;;;;;5068974;28;20021;-67
2022/04/04 07:41:48;;;;;;;5.38;1.52;;;;;;;;;;5064368;28;20115;-68
2022/04/04 07:44:14;;;;;;;5.65;1.70;;;;;;;;;;5064518;28;20480;-68
2022/04/04 07:46:40;;;;;;;7.00;1.80;;;;;;;;;;5062495;28;20036;-68
2022/04/04 07:49:06;;;;;;;4.40;1.85;;;;;;;;;;5062345;28;20766;-65
2022/04/04 07:51:32;;;;;;;5.88;1.70;;;;;;;;;;5064906;28;20015;-65
2022/04/04 07:53:58;;;;;;;5.75;1.63;;;;;;;;;;5064873;28;20440;-66
2022/04/04 07:56:24;;;;;;;5.82;1.55;;;;;;;;;;5064576;28;20100;-65
2022/04/04 07:58:50;;;;;;;5.53;1.52;;;;;;;;;;5065256;28;20028;-65
2022/04/04 08:01:16;;;;;;;3.95;1.42;;;;;;;;;;5070466;28;20047;-65
2022/04/04 08:03:42;;;;;;;6.93;1.95;;;;;;;;;;5067789;28;20068;-67
2022/04/04 08:06:08;;;;;;;4.15;1.35;;;;;;;;;;5067267;28;20470;-67
2022/04/04 08:08:34;;;;;;;6.53;1.38;;;;;;;;;;5040710;28;20476;-65
2022/04/04 08:11:03;;;;;;;5.25;1.50;;;;;;;;;;5063368;28;20024;-62
2022/04/04 08:13:29;;;;;;;9.15;1.70;;;;;;;;;;5060979;28;20107;-68
2022/04/04 08:15:56;;;;;;;4.80;1.60;;;;;;;;;;5068460;28;20025;-69
2022/04/04 08:18:23;;;;;;;5.65;1.63;;;;;;;;;;5043558;28;20432;-70
2022/04/04 08:20:49;;;;;;;4.03;1.42;;;;;;;;;;5055829;28;20048;-69
2022/04/04 08:23:15;;;;;;;6.40;1.77;;;;;;;;;;5065486;28;20119;-68
2022/04/04 08:25:41;;;;;;;5.43;1.42;;;;;;;;;;5064692;28;20120;-68
2022/04/04 08:28:07;;;;;;;4.70;1.73;;;;;;;;;;5071765;28;20066;-67
2022/04/04 08:30:33;;;;;;;7.60;1.50;;;;;;;;;;5062271;28;20099;-67
2022/04/04 08:32:59;;;;;;;4.22;1.55;;;;;;;;;;5065307;28;20415;-68
2022/04/04 08:35:25;;;;;;;4.85;1.60;;;;;;;;;;5064913;28;20020;-68
2022/04/04 08:37:51;;;;;;;3.67;1.65;;;;;;;;;;5062637;28;20096;-65
2022/04/04 08:40:18;;;;;;;5.80;1.60;;;;;;;;;;5062553;28;20035;-64
2022/04/04 08:42:45;;;;;;;4.72;1.50;;;;;;;;;;5060927;28;20035;-67
2022/04/04 08:45:11;;;;;;;4.28;1.90;;;;;;;;;;5058400;28;20473;-67
2022/04/04 08:47:38;;;;;;;4.35;1.70;;;;;;;;;;5064789;28;20020;-67
2022/04/04 08:50:04;;;;;;;8.43;1.40;;;;;;;;;;5063029;28;20049;-63
2022/04/04 08:52:30;;;;;;;3.75;1.50;;;;;;;;;;5060284;28;20024;-62
2022/04/04 08:54:56;;;;;;;4.43;1.77;;;;;;;;;;5058899;28;20377;-64
2022/04/04 08:57:22;;;;;;;4.25;1.60;;;;;;;;;;5035458;28;20407;-65
2022/04/04 08:59:48;;;;;;;4.82;1.70;;;;;;;;;;5072636;28;20541;-64
2022/04/04 09:02:15;;;;;;;4.00;1.35;;;;;;;;;;5082301;28;20025;-67
2022/04/04 09:04:41;;;;;;;4.93;1.58;;;;;;;;;;5058060;28;20494;-68
2022/04/04 09:07:08;;;;;;;3.83;1.60;;;;;;;;;;5056569;28;20028;-67
2022/04/04 09:09:39;;;;;;;5.55;1.73;;;;;;;;;;5073440;28;20752;-68
2022/04/04 09:12:10;;;;;;;3.40;1.40;;;;;;;;;;5075584;28;20036;-69
2022/04/04 09:14:43;;;;;;;2.95;1.42;;;;;;;;;;5063011;28;20017;-68
2022/04/04 09:17:10;;;;;;;4.03;1.50;;;;;;;;;;5065672;28;20071;-68
2022/04/04 09:19:37;;;;;;;4.30;1.70;;;;;;;;;;5064010;28;20017;-66
2022/04/04 09:22:09;;;;;;;3.63;1.42;;;;;;;;;;5064503;28;20575;-67
2022/04/04 09:24:46;;;;;;;3.17;1.45;;;;;;;;;;5053970;28;20036;-68
2022/04/04 09:27:13;;;;;;;4.50;1.55;;;;;;;;;;5060239;28;20033;-69
2022/04/04 09:29:42;;;;;;;4.25;1.58;;;;;;;;;;5062168;28;20021;-67
2022/04/04 09:32:12;;;;;;;3.85;1.42;;;;;;;;;;5044733;28;20052;-66
2022/04/04 09:34:57;;;;;;;5.53;1.77;;;;;;;;;;5065056;28;20021;-68
2022/04/04 09:37:24;;;;;;;3.72;1.83;;;;;;;;;;5060080;28;20025;-67
2022/04/04 09:39:51;;;;;;;4.53;1.70;;;;;;;;;;5059612;28;20051;-64
2022/04/04 09:42:19;;;;;;;6.32;1.90;;;;;;;;;;5060551;28;20025;-65
2022/04/04 09:45:02;;;;;;;6.63;1.60;;;;;;;;;;5058887;28;20090;-66
2022/04/04 09:47:48;;;;;;;6.35;1.83;;;;;;;;;;5058631;28;20021;-65
2022/04/04 09:50:33;;;;;;;6.30;1.48;;;;;;;;;;5057990;28;20024;-66
2022/04/04 09:53:00;;;;;;;3.17;1.33;;;;;;;;;;5061918;28;20036;-63
2022/04/04 09:55:27;;;;;;;6.43;1.48;;;;;;;;;;5058790;28;20025;-66
2022/04/04 09:57:54;;;;;;;6.35;1.42;;;;;;;;;;5059559;28;20021;-62
2022/04/04 10:00:21;;;;;;;5.75;1.30;;;;;;;;;;5060748;28;20031;-65
2022/04/04 10:02:47;;;;;;;3.90;1.52;;;;;;;;;;5060602;28;20017;-69
2022/04/04 10:05:13;;;;;;;4.90;1.50;;;;;;;;;;5057759;28;20086;-63
2022/04/04 10:07:40;;;;;;;4.70;1.30;;;;;;;;;;5057388;28;20452;-61
2022/04/04 10:10:06;;;;;;;4.53;1.73;;;;;;;;;;5057939;28;20040;-66
2022/04/04 10:12:35;;;;;;;2.92;1.33;;;;;;;;;;5058647;28;20023;-64
2022/04/04 10:15:03;;;;;;;2.78;1.33;;;;;;;;;;5074212;28;20421;-68
2022/04/04 10:17:30;;;;;;;7.00;1.50;;;;;;;;;;5061366;28;20025;-67
2022/04/04 10:19:57;;;;;;;4.78;1.33;;;;;;;;;;5040260;28;20112;-69
2022/04/04 10:22:24;;;;;;;5.35;1.52;;;;;;;;;;5059820;28;20047;-68
2022/04/04 10:24:51;;;;;;;3.67;1.30;;;;;;;;;;5070268;28;20044;-66
2022/04/04 10:27:20;;;;;;;4.45;1.27;;;;;;;;;;5073012;28;20090;-64
2022/04/04 10:29:47;;;;;;;3.10;1.20;;;;;;;;;;5091210;28;20479;-66
2022/04/04 10:32:24;;;;;;;2.13;1.10;;;;;;;;;;5075666;28;20071;-66
2022/04/04 10:34:51;;;;;;;4.32;1.45;;;;;;;;;;5050900;28;20039;-66
2022/04/04 10:37:19;;;;;;;9.07;1.70;;;;;;;;;;5064444;28;20086;-69
2022/04/04 10:39:51;;;;;;;4.38;1.38;;;;;;;;;;5064523;28;20032;-71
2022/04/04 10:42:24;;;;;;;4.90;1.60;;;;;;;;;;5047315;28;20065;-62
2022/04/04 10:44:50;;;;;;;4.40;1.30;;;;;;;;;;5067426;28;20048;-68
2022/04/04 10:47:20;;;;;;;4.18;1.48;;;;;;;;;;5071557;28;20056;-65
2022/04/04 10:49:47;;;;;;;6.72;1.70;;;;;;;;;;5071286;28;20069;-63
2022/04/04 10:52:13;;;;;;;6.25;1.73;;;;;;;;;;5066527;28;20024;-61
2022/04/04 10:54:39;;;;;;;4.78;1.60;;;;;;;;;;5053244;28;20113;-62
2022/04/04 10:57:15;;;;;;;5.25;1.65;;;;;;;;;;5072249;28;20483;-68
2022/04/04 10:59:44;;;;;;;3.92;1.55;;;;;;;;;;5064330;28;20024;-62
2022/04/04 11:02:11;;;;;;;6.03;1.55;;;;;;;;;;5059131;28;20540;-68
2022/04/04 11:04:37;;;;;;;5.35;1.45;;;;;;;;;;5065869;28;20040;-65
2022/04/04 11:09:51;;;;;;;6.20;1.63;;;;;;;;;;5061258;28;20542;-67
2022/04/04 11:12:18;;;;;;;6.03;1.85;;;;;;;;;;5062076;28;20491;-63
2022/04/04 11:14:47;;;;;;;4.55;1.67;;;;;;;;;;5050561;28;20035;-66
2022/04/04 11:17:20;;;;;;;3.80;1.10;;;;;;;;;;5045755;28;20648;-65
2022/04/04 11:19:46;;;;;;;4.90;1.40;;;;;;;;;;5044665;28;20027;-64
2022/04/04 11:22:17;;;;;;;5.82;1.52;;;;;;;;;;5064424;28;20064;-66
2022/04/04 11:24:43;;;;;;;6.75;1.60;;;;;;;;;;5064333;28;20033;-66
2022/04/04 11:27:10;;;;;;;4.70;1.50;;;;;;;;;;5065904;28;20028;-66
2022/04/04 11:29:39;;;;;;;3.95;1.20;;;;;;;;;;5068417;28;20542;-62
2022/04/04 11:32:07;;;;;;;1.52;0.80;;;;;;;;;;5061304;28;20104;-66
2022/04/04 11:34:36;;;;;;;3.45;1.30;;;;;;;;;;5062373;28;20025;-63
2022/04/04 11:37:04;;;;;;;4.05;1.35;;;;;;;;;;5068004;28;20495;-67
2022/04/04 11:39:30;;;;;;;4.13;1.02;;;;;;;;;;5065210;28;20086;-65
2022/04/04 11:41:56;;;;;;;4.97;1.17;;;;;;;;;;5061339;28;20023;-62
2022/04/04 11:44:26;;;;;;;3.35;1.10;;;;;;;;;;5063404;28;20033;-66
2022/04/04 11:47:06;;;;;;;1.35;0.80;;;;;;;;;;5045183;28;20341;-67
2022/04/04 11:49:33;;;;;;;2.50;1.20;;;;;;;;;;5061955;28;20057;-67
2022/04/04 11:52:04;;;;;;;3.28;0.98;;;;;;;;;;5047894;28;20024;-66
2022/04/04 11:54:31;;;;;;;3.55;0.90;;;;;;;;;;5066623;28;20036;-64
2022/04/04 11:56:58;;;;;;;2.70;1.02;;;;;;;;;;5073232;28;20067;-63
2022/04/04 11:59:24;;;;;;;3.95;1.00;;;;;;;;;;5073697;28;20107;-61
2022/04/04 12:01:51;;;;;;;2.08;0.90;;;;;;;;;;5065704;28;20021;-64
2022/04/04 12:04:17;;;;;;;2.33;0.90;;;;;;;;;;5065806;28;20071;-66
2022/04/04 12:06:45;;;;;;;2.03;0.73;;;;;;;;;;5056151;28;20116;-66
2022/04/04 12:09:13;;;;;;;2.90;0.90;;;;;;;;;;5071750;28;20052;-64
2022/04/04 12:11:39;;;;;;;2.40;0.80;;;;;;;;;;5073755;28;20047;-68
2022/04/04 12:14:11;;;;;;;1.85;0.90;;;;;;;;;;5074280;28;20445;-64
2022/04/04 12:16:48;;;;;;;2.88;0.90;;;;;;;;;;5039991;28;20021;-64
2022/04/04 12:19:14;;;;;;;2.17;0.80;;;;;;;;;;5035911;28;20399;-62
2022/04/04 12:21:40;;;;;;;2.58;0.95;;;;;;;;;;5067870;28;20467;-66
2022/04/04 12:27:07;;;;;;;3.55;1.00;;;;;;;;;;5067442;28;20052;-64
2022/04/04 12:29:38;;;;;;;1.90;0.97;;;;;;;;;;5071442;28;20016;-61
2022/04/04 12:32:12;;;;;;;5.15;0.90;;;;;;;;;;5066070;28;20383;-68
2022/04/04 12:34:38;;;;;;;3.78;0.85;;;;;;;;;;5073921;28;20048;-64
2022/04/04 12:37:08;;;;;;;2.83;1.13;;;;;;;;;;5073626;28;20427;-65
2022/04/04 12:39:34;;;;;;;3.92;0.90;;;;;;;;;;5069064;28;20021;-65
2022/04/04 12:42:05;;;;;;;3.30;0.85;;;;;;;;;;5055859;28;20090;-67
2022/04/04 12:44:32;;;;;;;3.67;0.98;;;;;;;;;;5063585;28;20054;-67
2022/04/04 12:47:09;;;;;;;2.42;0.90;;;;;;;;;;5059454;28;20740;-68
2022/04/04 12:49:35;;;;;;;3.17;0.82;;;;;;;;;;5062370;28;20078;-65
2022/04/04 12:52:06;;;;;;;3.50;1.00;;;;;;;;;;5064020;28;20016;-66
2022/04/04 12:54:32;;;;;;;2.90;1.17;;;;;;;;;;5063242;28;20024;-65
2022/04/04 12:57:03;;;;;;;1.88;0.80;;;;;;;;;;5058087;28;20075;-62
2022/04/04 12:59:29;;;;;;;2.70;1.15;;;;;;;;;;5065715;28;20020;-67
2022/04/04 13:02:06;;;;;;;2.83;0.98;;;;;;;;;;5066529;28;20622;-63
2022/04/04 13:04:32;;;;;;;2.05;0.80;;;;;;;;;;5067420;28;20409;-61
2022/04/04 13:07:00;;;;;;;3.05;1.30;;;;;;;;;;5062618;28;20024;-65
2022/04/04 13:09:27;;;;;;;3.95;1.30;;;;;;;;;;5064649;28;20039;-63
2022/04/04 13:11:54;;;;;;;4.80;1.30;;;;;;;;;;5064963;28;20055;-63
2022/04/04 13:14:21;;;;;;;7.72;1.33;;;;;;;;;;5063940;28;20028;-64
2022/04/04 13:17:07;;;;;;;4.65;1.45;;;;;;;;;;5069861;28;20031;-63
2022/04/04 13:19:33;;;;;;;3.33;1.30;;;;;;;;;;5066996;28;20027;-64
2022/04/04 13:21:59;;;;;;;6.68;1.63;;;;;;;;;;5061730;28;20036;-66
2022/04/04 13:24:25;;;;;;;3.83;1.33;;;;;;;;;;5042117;28;20464;-65
2022/04/04 13:26:51;;;;;;;4.50;1.30;;;;;;;;;;5059934;28;20071;-62
2022/04/04 13:29:18;;;;;;;4.45;1.40;;;;;;;;;;5065113;28;20028;-66
2022/04/04 13:31:45;;;;;;;3.05;1.38;;;;;;;;;;5063473;28;20033;-63
2022/04/04 13:34:12;;;;;;;6.68;1.75;;;;;;;;;;5068114;28;20054;-63
2022/04/04 13:36:38;;;;;;;3.70;1.38;;;;;;;;;;5071767;28;20464;-62
2022/04/04 13:39:05;;;;;;;5.30;1.73;;;;;;;;;;5071042;28;20024;-63
2022/04/04 13:41:33;;;;;;;4.50;1.70;;;;;;;;;;5071051;28;20043;-68
2022/04/04 13:43:59;;;;;;;9.55;2.20;;;;;;;;;;5072534;28;20054;-67
2022/04/04 13:46:27;;;;;;;7.22;1.63;;;;;;;;;;5071853;28;20066;-66
2022/04/04 13:48:54;;;;;;;5.50;1.90;;;;;;;;;;5067457;28;20441;-66
2022/04/04 13:51:22;;;;;;;5.70;1.80;;;;;;;;;;5066771;28;20502;-65
2022/04/04 13:53:48;;;;;;;6.82;1.75;;;;;;;;;;5068412;28;20025;-67
2022/04/04 13:56:14;;;;;;;5.10;1.55;;;;;;;;;;5062743;28;20042;-63
2022/04/04 13:58:41;;;;;;;5.78;1.92;;;;;;;;;;5064630;28;20024;-67
2022/04/04 14:01:07;;;;;;;5.97;1.58;;;;;;;;;;5069062;28;20027;-67
2022/04/04 14:03:33;;;;;;;6.32;1.73;;;;;;;;;;5085608;28;20028;-68
2022/04/04 14:06:00;;;;;;;7.97;2.10;;;;;;;;;;5063208;28;20055;-68
2022/04/04 14:08:26;;;;;;;6.80;2.10;;;;;;;;;;5051826;28;20017;-67
2022/04/04 14:10:56;;;;;;;9.80;2.20;;;;;;;;;;5051665;28;20100;-66
2022/04/04 14:13:23;;;;;;;11.55;2.22;;;;;;;;;;5057302;28;20122;-68
2022/04/04 14:15:50;;;;;;;7.55;1.92;;;;;;;;;;5075735;28;20028;-68
2022/04/04 14:18:16;;;;;;;9.80;2.10;;;;;;;;;;5048157;28;20035;-68
2022/04/04 14:20:42;;;;;;;9.60;2.47;;;;;;;;;;5066872;28;20036;-67
2022/04/04 14:23:08;;;;;;;6.97;1.88;;;;;;;;;;5062346;28;20049;-65
2022/04/04 14:25:34;;;;;;;7.57;2.25;;;;;;;;;;5061964;28;20400;-67
2022/04/04 14:28:00;;;;;;;6.80;2.20;;;;;;;;;;5066981;28;20028;-65
2022/04/04 14:30:26;;;;;;;5.88;1.90;;;;;;;;;;5077597;28;20133;-63
2022/04/04 14:32:53;;;;;;;6.35;1.70;;;;;;;;;;5062864;28;20040;-63
2022/04/04 14:35:20;;;;;;;7.28;2.20;;;;;;;;;;5059872;28;20111;-66
2022/04/04 14:37:46;;;;;;;11.40;2.05;;;;;;;;;;5062287;28;20456;-66
2022/04/04 14:40:12;;;;;;;8.52;2.40;;;;;;;;;;5067719;28;20060;-67
2022/04/04 14:42:40;;;;;;;12.23;2.22;;;;;;;;;;5060046;28;20026;-64
2022/04/04 14:45:07;;;;;;;6.32;1.90;;;;;;;;;;5056866;28;20029;-69
2022/04/04 14:47:33;;;;;;;13.02;2.25;;;;;;;;;;5064044;28;20052;-65
2022/04/04 14:49:59;;;;;;;9.40;2.22;;;;;;;;;;5070745;28;20021;-67